createdAt,value
2023-03-23T16:00:41.207Z,68.87
2023-03-23T16:05:46.267Z,69.51
2023-03-23T16:10:50.775Z,70.16
2023-03-23T16:15:52.407Z,70.29
2023-03-23T16:20:53.950Z,71.17
2023-03-23T16:25:55.493Z,71.53
2023-03-23T16:30:57.076Z,73.40
2023-03-23T16:35:58.777Z,73.55
2023-03-23T16:41:00.506Z,72.97
2023-03-23T16:46:02.341Z,72.87
2023-03-23T16:51:04.020Z,73.02
2023-03-23T16:56:05.982Z,72.78
2023-03-23T17:01:08.040Z,72.85
2023-03-23T17:06:09.795Z,73.04
2023-03-23T17:11:11.454Z,73.95
2023-03-23T17:16:13.050Z,73.85
2023-03-23T17:21:14.665Z,74.35
2023-03-23T17:26:16.435Z,74.66
2023-03-23T17:31:18.226Z,75.27
2023-03-23T17:36:19.866Z,75.59
2023-03-23T17:41:21.461Z,75.80
2023-03-23T17:46:23.098Z,75.92
2023-03-23T17:51:24.677Z,76.46
2023-03-23T17:56:26.282Z,76.11
2023-03-23T18:01:27.953Z,75.27
2023-03-23T18:06:29.501Z,75.23
2023-03-23T18:11:31.187Z,74.71
2023-03-23T18:16:33.086Z,73.21
2023-03-23T18:21:34.619Z,72.80
2023-03-23T18:26:36.446Z,72.38
2023-03-23T18:31:40.158Z,70.93
2023-03-23T18:36:44.286Z,70.57
2023-03-23T18:41:45.954Z,69.71
2023-03-23T18:46:47.497Z,69.60
2023-03-23T18:51:49.201Z,68.71
2023-03-23T18:56:50.787Z,68.48
2023-03-23T19:01:52.464Z,68.14
2023-03-23T19:06:54.054Z,67.79
2023-03-23T19:11:56.299Z,68.07
2023-03-23T19:16:57.833Z,67.25
2023-03-23T19:22:00.119Z,67.34
2023-03-23T19:27:01.945Z,67.40
2023-03-23T19:32:03.574Z,66.79
2023-03-23T19:37:10.207Z,66.59
2023-03-23T19:42:16.733Z,66.31
2023-03-23T19:47:18.509Z,66.70
2023-03-23T19:52:20.137Z,66.37
2023-03-23T19:57:22.310Z,67.04
2023-03-23T20:02:23.963Z,66.29
2023-03-23T20:07:26.957Z,66.16
2023-03-23T20:12:28.579Z,65.66
2023-03-23T20:17:30.662Z,65.17
2023-03-23T20:22:32.248Z,65.23
2023-03-23T20:27:35.000Z,65.52
2023-03-23T20:32:37.352Z,65.02
2023-03-23T20:37:40.333Z,64.78
2023-03-23T20:42:44.088Z,64.71
2023-03-23T20:47:46.149Z,64.25
2023-03-23T20:52:48.029Z,64.77
2023-03-23T20:57:49.559Z,64.69
2023-03-23T21:02:54.093Z,64.64
2023-03-23T21:07:57.977Z,64.31
2023-03-23T21:13:00.109Z,64.43
2023-03-23T21:18:01.723Z,64.43
2023-03-23T21:23:06.376Z,63.75
2023-03-23T21:28:08.928Z,64.20
2023-03-23T21:33:11.556Z,63.65
2023-03-23T21:38:14.693Z,63.72
2023-03-23T21:43:16.877Z,63.63
2023-03-23T21:48:18.867Z,64.63
2023-03-23T21:53:22.331Z,65.07
2023-03-23T21:58:27.387Z,65.18
2023-03-23T22:03:33.120Z,65.30
2023-03-23T22:08:37.245Z,66.35
2023-03-23T22:13:40.649Z,66.58
2023-03-23T22:18:43.406Z,67.57
2023-03-23T22:23:46.189Z,68.33
2023-03-23T22:28:49.538Z,68.27
2023-03-23T22:33:55.497Z,68.59
2023-03-23T22:38:57.144Z,69.15
2023-03-23T22:43:58.801Z,71.05
2023-03-23T22:49:00.640Z,74.29
2023-03-23T22:54:02.309Z,76.04
2023-03-23T22:59:07.792Z,78.05
2023-03-23T23:04:09.569Z,79.07
2023-03-23T23:09:11.190Z,80.39
2023-03-23T23:14:12.760Z,81.24
2023-03-23T23:19:14.916Z,82.28
2023-03-23T23:24:17.087Z,84.42
2023-03-23T23:29:18.801Z,85.66
2023-03-23T23:34:22.134Z,87.35
2023-03-23T23:39:23.645Z,87.89
2023-03-23T23:44:25.575Z,89.15
2023-03-23T23:49:29.911Z,90.97
2023-03-23T23:54:31.755Z,92.47
2023-03-23T23:59:33.408Z,94.32
